Terminal Aerodrome Forecast
Issued by NWS

Home | Current Version | Previous Version | Text Only | Print | Product List | Glossary On
Versions: 1 2 3 4 5 6 7 8 9 10 11 12 13 14 15 16 17 18 19 20 21
000
FTUS43 KDMX 301840 AAA
TAFFOD
TAF AMD
KFOD 301840Z 3019/3118 14003KT P6SM BKN025 OVC090
     FM302100 14003KT P6SM SCT025 SCT090
     FM311100 12003KT 1SM BR BKN009
     FM311300 14005KT 6SM BR SCT009 SCT025
     FM311600 14008KT P6SM BKN045=

USA.gov is the U.S. government's official web portal to all federal, state and local government web resources and services.